LKE9653 ZPJH-ZPDL
Flight info
| Callsign | LKE9653 |
|---|---|
| Flight time | 1h 5m |
| Altitude | 33100 |
| Route | JHG P336 DJM YJ GMA MAKUL URGAV BUBSU DONEN DAL OGAVA |
| Aircraft | B738/M-SDE2E3FGHIRWXY/LB1 |
Departure
| Time | 2026-05-07 08:07 |
|---|---|
| Airport | Xishuangbanna Gasa International Airport (ZPJH) |
Arrival
| Time | 2026-05-07 09:13 |
|---|---|
| Airport | Dali Fengyi Airport (ZPDL) |
| Time | Latitude | Longitude | Altitude | Speed | Heading |
|---|---|---|---|---|---|
| 2026-05-07 07:35 | 21.97331 | 100.76515 | 1833 ft | 0 kts | 70° |
| 2026-05-07 07:57 | 21.97331 | 100.76514 | 1833 ft | 1 kts | 70° |
| 2026-05-07 07:58 | 21.97326 | 100.76499 | 1833 ft | 2 kts | 70° |
| 2026-05-07 07:58 | 21.97320 | 100.76484 | 1833 ft | 2 kts | 83° |
| 2026-05-07 07:58 | 21.97324 | 100.76468 | 1833 ft | 2 kts | 126° |
| 2026-05-07 07:59 | 21.97340 | 100.76457 | 1833 ft | 1 kts | 162° |
| 2026-05-07 07:59 | 21.97341 | 100.76457 | 1833 ft | 0 kts | 162° |
| 2026-05-07 08:01 | 21.97338 | 100.76457 | 1833 ft | 1 kts | 162° |
| 2026-05-07 08:01 | 21.97314 | 100.76466 | 1833 ft | 5 kts | 161° |
| 2026-05-07 08:01 | 21.97265 | 100.76484 | 1833 ft | 9 kts | 161° |
| 2026-05-07 08:02 | 21.97190 | 100.76511 | 1833 ft | 13 kts | 161° |
| 2026-05-07 08:02 | 21.97090 | 100.76548 | 1834 ft | 14 kts | 161° |
| 2026-05-07 08:02 | 21.97014 | 100.76565 | 1834 ft | 9 kts | 199° |
| 2026-05-07 08:02 | 21.96983 | 100.76520 | 1834 ft | 3 kts | 251° |
| 2026-05-07 08:03 | 21.96982 | 100.76520 | 1834 ft | 0 kts | 251° |
| 2026-05-07 08:03 | 21.96980 | 100.76514 | 1834 ft | 2 kts | 250° |
| 2026-05-07 08:04 | 21.96968 | 100.76477 | 1834 ft | 7 kts | 250° |
| 2026-05-07 08:04 | 21.96920 | 100.76436 | 1834 ft | 11 kts | 182° |
| 2026-05-07 08:04 | 21.96846 | 100.76460 | 1834 ft | 11 kts | 161° |
| 2026-05-07 08:04 | 21.96766 | 100.76490 | 1835 ft | 13 kts | 161° |
| 2026-05-07 08:05 | 21.96665 | 100.76528 | 1835 ft | 16 kts | 161° |
| 2026-05-07 08:05 | 21.96543 | 100.76572 | 1836 ft | 20 kts | 162° |
| 2026-05-07 08:05 | 21.96488 | 100.76619 | 1836 ft | 5 kts | 129° |
| 2026-05-07 08:05 | 21.96460 | 100.76634 | 1836 ft | 4 kts | 185° |
| 2026-05-07 08:06 | 21.96448 | 100.76614 | 1836 ft | 3 kts | 295° |
| 2026-05-07 08:06 | 21.96466 | 100.76604 | 1836 ft | 2 kts | 341° |
| 2026-05-07 08:06 | 21.96510 | 100.76587 | 1836 ft | 18 kts | 340° |
| 2026-05-07 08:06 | 21.96872 | 100.76450 | 1834 ft | 89 kts | 341° |
| 2026-05-07 08:07 | 21.97659 | 100.76155 | 1830 ft | 147 kts | 341° |
| 2026-05-07 08:07 | 21.98789 | 100.75732 | 1923 ft | 185 kts | 341° |
| 2026-05-07 08:07 | 22.00031 | 100.75307 | 2456 ft | 192 kts | 344° |
| 2026-05-07 08:07 | 22.01359 | 100.74915 | 3000 ft | 204 kts | 345° |
| 2026-05-07 08:08 | 22.02729 | 100.74527 | 3667 ft | 204 kts | 342° |
| 2026-05-07 08:08 | 22.04079 | 100.74058 | 4293 ft | 204 kts | 341° |
| 2026-05-07 08:08 | 22.05454 | 100.73598 | 4851 ft | 209 kts | 343° |
| 2026-05-07 08:08 | 22.06847 | 100.73238 | 5600 ft | 204 kts | 347° |
| 2026-05-07 08:09 | 22.08249 | 100.73030 | 6079 ft | 215 kts | 1° |
| 2026-05-07 08:09 | 22.09732 | 100.73551 | 6344 ft | 238 kts | 30° |
| 2026-05-07 08:09 | 22.11182 | 100.74590 | 6726 ft | 254 kts | 31° |
| 2026-05-07 08:09 | 22.12727 | 100.75596 | 7147 ft | 268 kts | 27° |
| 2026-05-07 08:10 | 22.14423 | 100.76556 | 7640 ft | 278 kts | 25° |
| 2026-05-07 08:10 | 22.16171 | 100.77490 | 8235 ft | 284 kts | 25° |
| 2026-05-07 08:10 | 22.17967 | 100.78448 | 8906 ft | 287 kts | 25° |
| 2026-05-07 08:10 | 22.19764 | 100.79413 | 9581 ft | 290 kts | 25° |
| 2026-05-07 08:11 | 22.21575 | 100.80389 | 10300 ft | 292 kts | 25° |
| 2026-05-07 08:11 | 22.23420 | 100.81390 | 10764 ft | 304 kts | 25° |
| 2026-05-07 08:11 | 22.25371 | 100.82449 | 11170 ft | 319 kts | 25° |
| 2026-05-07 08:11 | 22.27374 | 100.83537 | 11558 ft | 332 kts | 25° |
| 2026-05-07 08:12 | 22.29521 | 100.84700 | 11943 ft | 347 kts | 25° |
| 2026-05-07 08:12 | 22.31704 | 100.85880 | 12367 ft | 358 kts | 25° |
| 2026-05-07 08:12 | 22.33962 | 100.87102 | 13026 ft | 362 kts | 25° |
| 2026-05-07 08:12 | 22.36237 | 100.88335 | 13665 ft | 367 kts | 24° |
| 2026-05-07 08:13 | 22.38535 | 100.89581 | 14296 ft | 372 kts | 25° |
| 2026-05-07 08:13 | 22.40858 | 100.90842 | 14925 ft | 377 kts | 24° |
| 2026-05-07 08:13 | 22.43235 | 100.92103 | 15516 ft | 382 kts | 23° |
| 2026-05-07 08:13 | 22.45636 | 100.93160 | 16100 ft | 385 kts | 15° |
| 2026-05-07 08:14 | 22.47796 | 100.93749 | 16587 ft | 387 kts | 8° |
| 2026-05-07 08:14 | 22.50479 | 100.94192 | 17177 ft | 390 kts | 4° |
| 2026-05-07 08:14 | 22.53186 | 100.94489 | 17754 ft | 393 kts | 2° |
| 2026-05-07 08:14 | 22.55932 | 100.94741 | 18323 ft | 398 kts | 1° |
| 2026-05-07 08:15 | 22.58711 | 100.94997 | 18926 ft | 401 kts | 1° |
| 2026-05-07 08:15 | 22.61515 | 100.95239 | 19457 ft | 404 kts | 358° |
| 2026-05-07 08:15 | 22.64368 | 100.95084 | 20022 ft | 403 kts | 347° |
| 2026-05-07 08:15 | 22.67087 | 100.94390 | 20581 ft | 401 kts | 337° |
| 2026-05-07 08:16 | 22.69643 | 100.93228 | 21106 ft | 399 kts | 328° |
| 2026-05-07 08:16 | 22.72041 | 100.91711 | 21646 ft | 399 kts | 322° |
| 2026-05-07 08:16 | 22.74293 | 100.89922 | 22141 ft | 399 kts | 315° |
| 2026-05-07 08:16 | 22.76205 | 100.87804 | 22654 ft | 396 kts | 304° |
| 2026-05-07 08:17 | 22.77795 | 100.85370 | 23207 ft | 395 kts | 298° |
| 2026-05-07 08:17 | 22.79212 | 100.82814 | 23745 ft | 395 kts | 296° |
| 2026-05-07 08:17 | 22.80575 | 100.80206 | 24258 ft | 397 kts | 296° |
| 2026-05-07 08:17 | 22.81928 | 100.77571 | 24743 ft | 400 kts | 296° |
| 2026-05-07 08:18 | 22.83269 | 100.74960 | 25203 ft | 403 kts | 296° |
| 2026-05-07 08:18 | 22.84654 | 100.72279 | 25728 ft | 404 kts | 296° |
| 2026-05-07 08:18 | 22.86037 | 100.69618 | 26197 ft | 406 kts | 296° |
| 2026-05-07 08:18 | 22.87428 | 100.66952 | 26611 ft | 409 kts | 297° |
| 2026-05-07 08:19 | 22.88827 | 100.64278 | 27055 ft | 412 kts | 297° |
| 2026-05-07 08:19 | 22.90252 | 100.61559 | 27488 ft | 414 kts | 297° |
| 2026-05-07 08:19 | 22.91677 | 100.58843 | 27972 ft | 414 kts | 297° |
| 2026-05-07 08:19 | 22.93106 | 100.56118 | 28367 ft | 417 kts | 297° |
| 2026-05-07 08:20 | 22.94544 | 100.53376 | 28750 ft | 420 kts | 297° |
| 2026-05-07 08:20 | 22.95993 | 100.50615 | 29162 ft | 422 kts | 297° |
| 2026-05-07 08:20 | 22.97435 | 100.47863 | 29578 ft | 423 kts | 297° |
| 2026-05-07 08:20 | 22.98900 | 100.45067 | 30132 ft | 421 kts | 297° |
| 2026-05-07 08:21 | 23.00343 | 100.42311 | 30761 ft | 417 kts | 297° |
| 2026-05-07 08:21 | 23.01768 | 100.39590 | 31309 ft | 414 kts | 297° |
| 2026-05-07 08:21 | 23.03183 | 100.36882 | 31812 ft | 412 kts | 297° |
| 2026-05-07 08:21 | 23.04492 | 100.34376 | 32261 ft | 410 kts | 297° |
| 2026-05-07 08:22 | 23.05901 | 100.31675 | 32718 ft | 410 kts | 297° |
| 2026-05-07 08:22 | 23.07309 | 100.28976 | 33160 ft | 409 kts | 297° |
| 2026-05-07 08:22 | 23.08715 | 100.26278 | 33206 ft | 413 kts | 297° |
| 2026-05-07 08:23 | 23.11540 | 100.20856 | 33232 ft | 405 kts | 297° |
| 2026-05-07 08:23 | 23.14250 | 100.15645 | 33262 ft | 406 kts | 297° |
| 2026-05-07 08:24 | 23.17042 | 100.10268 | 33274 ft | 406 kts | 297° |
| 2026-05-07 08:24 | 23.19816 | 100.04925 | 33280 ft | 406 kts | 297° |
| 2026-05-07 08:25 | 23.22582 | 99.99588 | 33281 ft | 406 kts | 297° |
| 2026-05-07 08:25 | 23.25357 | 99.94234 | 33279 ft | 405 kts | 297° |
| 2026-05-07 08:26 | 23.29510 | 99.86208 | 33283 ft | 405 kts | 297° |
| 2026-05-07 08:26 | 23.32266 | 99.80877 | 33281 ft | 405 kts | 297° |
| 2026-05-07 08:27 | 23.35028 | 99.75523 | 33277 ft | 405 kts | 296° |
| 2026-05-07 08:27 | 23.37850 | 99.70199 | 33266 ft | 406 kts | 300° |
| 2026-05-07 08:28 | 23.41669 | 99.65641 | 33263 ft | 415 kts | 320° |
| 2026-05-07 08:28 | 23.46876 | 99.62703 | 33255 ft | 425 kts | 334° |
| 2026-05-07 08:29 | 23.52730 | 99.61453 | 33256 ft | 440 kts | 355° |
| 2026-05-07 08:29 | 23.58884 | 99.62613 | 33259 ft | 454 kts | 12° |
| 2026-05-07 08:30 | 23.61858 | 99.63926 | 33267 ft | 462 kts | 23° |
| 2026-05-07 08:30 | 23.64538 | 99.65853 | 33283 ft | 472 kts | 36° |
| 2026-05-07 08:30 | 23.66890 | 99.68420 | 33291 ft | 479 kts | 47° |
| 2026-05-07 08:30 | 23.68853 | 99.71379 | 33295 ft | 481 kts | 54° |
| 2026-05-07 08:31 | 23.72282 | 99.77654 | 33313 ft | 483 kts | 58° |
| 2026-05-07 08:31 | 23.75546 | 99.84064 | 33323 ft | 482 kts | 58° |
| 2026-05-07 08:32 | 23.78778 | 99.90443 | 33328 ft | 482 kts | 58° |
| 2026-05-07 08:32 | 23.82043 | 99.96836 | 33334 ft | 481 kts | 58° |
| 2026-05-07 08:33 | 23.85322 | 100.03216 | 33339 ft | 482 kts | 58° |
| 2026-05-07 08:33 | 23.88625 | 100.09624 | 33344 ft | 483 kts | 58° |
| 2026-05-07 08:34 | 23.91917 | 100.16010 | 33354 ft | 483 kts | 58° |
| 2026-05-07 08:34 | 23.95197 | 100.22381 | 33381 ft | 482 kts | 58° |
| 2026-05-07 08:35 | 23.98505 | 100.28811 | 33395 ft | 484 kts | 58° |
| 2026-05-07 08:35 | 24.01789 | 100.35204 | 33354 ft | 483 kts | 58° |
| 2026-05-07 08:36 | 24.05082 | 100.41601 | 33305 ft | 482 kts | 56° |
| 2026-05-07 08:36 | 24.09095 | 100.47424 | 33268 ft | 473 kts | 36° |
| 2026-05-07 08:37 | 24.11739 | 100.49458 | 33249 ft | 464 kts | 23° |
| 2026-05-07 08:37 | 24.14696 | 100.50869 | 33236 ft | 456 kts | 12° |
| 2026-05-07 08:37 | 24.20801 | 100.52328 | 33233 ft | 443 kts | 356° |
| 2026-05-07 08:38 | 24.23841 | 100.52176 | 33234 ft | 435 kts | 345° |
| 2026-05-07 08:38 | 24.26821 | 100.51533 | 33227 ft | 430 kts | 340° |
| 2026-05-07 08:38 | 24.32586 | 100.49854 | 33233 ft | 427 kts | 338° |
| 2026-05-07 08:39 | 24.38293 | 100.48067 | 33248 ft | 427 kts | 338° |
| 2026-05-07 08:39 | 24.44054 | 100.46300 | 33259 ft | 429 kts | 338° |
| 2026-05-07 08:40 | 24.49830 | 100.44570 | 33261 ft | 428 kts | 338° |
| 2026-05-07 08:40 | 24.55568 | 100.42819 | 33276 ft | 426 kts | 336° |
| 2026-05-07 08:41 | 24.61106 | 100.40588 | 33291 ft | 422 kts | 332° |
| 2026-05-07 08:41 | 24.66559 | 100.38128 | 33297 ft | 421 kts | 331° |
| 2026-05-07 08:42 | 24.71983 | 100.35682 | 33296 ft | 421 kts | 331° |
| 2026-05-07 08:42 | 24.77454 | 100.33248 | 33289 ft | 421 kts | 331° |
| 2026-05-07 08:43 | 24.82893 | 100.30849 | 33293 ft | 422 kts | 331° |
| 2026-05-07 08:43 | 24.88376 | 100.28440 | 33298 ft | 421 kts | 331° |
| 2026-05-07 08:44 | 24.93802 | 100.26055 | 33308 ft | 421 kts | 331° |
| 2026-05-07 08:44 | 24.99262 | 100.24022 | 33046 ft | 421 kts | 341° |
| 2026-05-07 08:45 | 25.02142 | 100.23702 | 32769 ft | 422 kts | 353° |
| 2026-05-07 08:45 | 25.05068 | 100.23986 | 32502 ft | 421 kts | 1° |
| 2026-05-07 08:45 | 25.07953 | 100.24562 | 32256 ft | 416 kts | 5° |
| 2026-05-07 08:45 | 25.10718 | 100.25452 | 32011 ft | 415 kts | 14° |
| 2026-05-07 08:46 | 25.13333 | 100.26822 | 31771 ft | 411 kts | 20° |
| 2026-05-07 08:46 | 25.15909 | 100.28046 | 31527 ft | 396 kts | 11° |
| 2026-05-07 08:46 | 25.18505 | 100.28810 | 31282 ft | 382 kts | 3° |
| 2026-05-07 08:46 | 25.21089 | 100.29277 | 31040 ft | 370 kts | 359° |
| 2026-05-07 08:47 | 25.23638 | 100.29580 | 30798 ft | 360 kts | 356° |
| 2026-05-07 08:47 | 25.26121 | 100.29797 | 30553 ft | 352 kts | 355° |
| 2026-05-07 08:47 | 25.28529 | 100.29972 | 30311 ft | 344 kts | 355° |
| 2026-05-07 08:47 | 25.30900 | 100.30128 | 30069 ft | 341 kts | 355° |
| 2026-05-07 08:48 | 25.33286 | 100.30278 | 29830 ft | 341 kts | 355° |
| 2026-05-07 08:48 | 25.35679 | 100.30427 | 29588 ft | 343 kts | 355° |
| 2026-05-07 08:48 | 25.38051 | 100.30577 | 29346 ft | 343 kts | 355° |
| 2026-05-07 08:48 | 25.40432 | 100.30732 | 29106 ft | 343 kts | 355° |
| 2026-05-07 08:49 | 25.42827 | 100.30891 | 28865 ft | 341 kts | 355° |
| 2026-05-07 08:49 | 25.45186 | 100.31050 | 28618 ft | 340 kts | 356° |
| 2026-05-07 08:49 | 25.47574 | 100.31210 | 28371 ft | 339 kts | 355° |
| 2026-05-07 08:49 | 25.49923 | 100.31367 | 28125 ft | 339 kts | 355° |
| 2026-05-07 08:50 | 25.52213 | 100.31519 | 27884 ft | 339 kts | 355° |
| 2026-05-07 08:50 | 25.54582 | 100.31677 | 27636 ft | 339 kts | 355° |
| 2026-05-07 08:50 | 25.56932 | 100.31834 | 27390 ft | 339 kts | 355° |
| 2026-05-07 08:50 | 25.59318 | 100.31993 | 27142 ft | 341 kts | 356° |
| 2026-05-07 08:51 | 25.61685 | 100.32158 | 26896 ft | 343 kts | 357° |
| 2026-05-07 08:51 | 25.64079 | 100.32458 | 26646 ft | 347 kts | 3° |
| 2026-05-07 08:51 | 25.66438 | 100.33057 | 26400 ft | 350 kts | 9° |
| 2026-05-07 08:51 | 25.68808 | 100.33893 | 26156 ft | 354 kts | 13° |
| 2026-05-07 08:52 | 25.71137 | 100.34811 | 25909 ft | 356 kts | 14° |
| 2026-05-07 08:52 | 25.73523 | 100.35780 | 25653 ft | 356 kts | 14° |
| 2026-05-07 08:52 | 25.75899 | 100.36740 | 25399 ft | 356 kts | 14° |
| 2026-05-07 08:52 | 25.78235 | 100.37676 | 25149 ft | 356 kts | 14° |
| 2026-05-07 08:53 | 25.80596 | 100.38611 | 24903 ft | 356 kts | 13° |
| 2026-05-07 08:53 | 25.82943 | 100.39532 | 24656 ft | 357 kts | 13° |
| 2026-05-07 08:53 | 25.85287 | 100.40449 | 24411 ft | 357 kts | 14° |
| 2026-05-07 08:53 | 25.87659 | 100.41376 | 24164 ft | 357 kts | 14° |
| 2026-05-07 08:54 | 25.90014 | 100.42297 | 23917 ft | 359 kts | 14° |
| 2026-05-07 08:54 | 25.92371 | 100.43217 | 23666 ft | 359 kts | 14° |
| 2026-05-07 08:54 | 25.94735 | 100.44138 | 23420 ft | 358 kts | 14° |
| 2026-05-07 08:54 | 25.97083 | 100.45053 | 23176 ft | 359 kts | 14° |
| 2026-05-07 08:55 | 25.99448 | 100.45974 | 22926 ft | 359 kts | 14° |
| 2026-05-07 08:55 | 26.01779 | 100.46883 | 22678 ft | 360 kts | 14° |
| 2026-05-07 08:55 | 26.04152 | 100.47809 | 22430 ft | 360 kts | 14° |
| 2026-05-07 08:55 | 26.06501 | 100.48723 | 22189 ft | 362 kts | 13° |
| 2026-05-07 08:56 | 26.08892 | 100.49653 | 21946 ft | 360 kts | 13° |
| 2026-05-07 08:56 | 26.11261 | 100.50574 | 21709 ft | 358 kts | 14° |
| 2026-05-07 08:56 | 26.13651 | 100.51504 | 21474 ft | 359 kts | 13° |
| 2026-05-07 08:56 | 26.16020 | 100.52427 | 21240 ft | 358 kts | 14° |
| 2026-05-07 08:57 | 26.18370 | 100.53344 | 21008 ft | 358 kts | 14° |
| 2026-05-07 08:57 | 26.20733 | 100.54267 | 20775 ft | 357 kts | 14° |
| 2026-05-07 08:57 | 26.23061 | 100.55177 | 20547 ft | 356 kts | 14° |
| 2026-05-07 08:57 | 26.25434 | 100.56009 | 20317 ft | 353 kts | 8° |
| 2026-05-07 08:58 | 26.27837 | 100.56437 | 20083 ft | 347 kts | 356° |
| 2026-05-07 08:58 | 26.30222 | 100.56229 | 19855 ft | 338 kts | 342° |
| 2026-05-07 08:58 | 26.32479 | 100.55514 | 19626 ft | 332 kts | 333° |
| 2026-05-07 08:58 | 26.34601 | 100.54513 | 19390 ft | 329 kts | 327° |
| 2026-05-07 08:59 | 26.36525 | 100.53170 | 19150 ft | 322 kts | 315° |
| 2026-05-07 08:59 | 26.38100 | 100.51447 | 18918 ft | 318 kts | 304° |
| 2026-05-07 08:59 | 26.39394 | 100.49449 | 18688 ft | 313 kts | 297° |
| 2026-05-07 08:59 | 26.40433 | 100.47349 | 18466 ft | 311 kts | 290° |
| 2026-05-07 09:00 | 26.41129 | 100.45074 | 18245 ft | 309 kts | 279° |
| 2026-05-07 09:00 | 26.41427 | 100.42766 | 18030 ft | 308 kts | 271° |
| 2026-05-07 09:00 | 26.41443 | 100.40387 | 17812 ft | 308 kts | 265° |
| 2026-05-07 09:00 | 26.41144 | 100.38019 | 17592 ft | 308 kts | 256° |
| 2026-05-07 09:01 | 26.40444 | 100.35754 | 17373 ft | 309 kts | 246° |
| 2026-05-07 09:01 | 26.39438 | 100.33615 | 17150 ft | 311 kts | 239° |
| 2026-05-07 09:01 | 26.38173 | 100.31647 | 16926 ft | 312 kts | 230° |
| 2026-05-07 09:01 | 26.36584 | 100.29964 | 16705 ft | 315 kts | 220° |
| 2026-05-07 09:02 | 26.34748 | 100.28599 | 16485 ft | 319 kts | 212° |
| 2026-05-07 09:02 | 26.32724 | 100.27531 | 16258 ft | 323 kts | 202° |
| 2026-05-07 09:02 | 26.30524 | 100.26874 | 16027 ft | 327 kts | 192° |
| 2026-05-07 09:02 | 26.28244 | 100.26672 | 15796 ft | 330 kts | 183° |
| 2026-05-07 09:03 | 26.25935 | 100.26825 | 15559 ft | 331 kts | 178° |
| 2026-05-07 09:03 | 26.23625 | 100.27007 | 15313 ft | 327 kts | 180° |
| 2026-05-07 09:03 | 26.21390 | 100.27102 | 15066 ft | 318 kts | 181° |
| 2026-05-07 09:03 | 26.19193 | 100.27168 | 14822 ft | 310 kts | 181° |
| 2026-05-07 09:04 | 26.17067 | 100.27222 | 14578 ft | 302 kts | 181° |
| 2026-05-07 09:04 | 26.14963 | 100.27270 | 14335 ft | 294 kts | 181° |
| 2026-05-07 09:04 | 26.12943 | 100.27316 | 14093 ft | 288 kts | 181° |
| 2026-05-07 09:04 | 26.10947 | 100.27356 | 13850 ft | 283 kts | 181° |
| 2026-05-07 09:05 | 26.08994 | 100.27390 | 13611 ft | 281 kts | 181° |
| 2026-05-07 09:05 | 26.07031 | 100.27421 | 13371 ft | 281 kts | 181° |
| 2026-05-07 09:05 | 26.05071 | 100.27443 | 13129 ft | 281 kts | 181° |
| 2026-05-07 09:05 | 26.03113 | 100.27463 | 12885 ft | 280 kts | 181° |
| 2026-05-07 09:06 | 26.01147 | 100.27477 | 12639 ft | 279 kts | 182° |
| 2026-05-07 09:06 | 25.99195 | 100.27447 | 12407 ft | 279 kts | 183° |
| 2026-05-07 09:06 | 25.97267 | 100.27387 | 12194 ft | 278 kts | 184° |
| 2026-05-07 09:06 | 25.95354 | 100.27317 | 11995 ft | 270 kts | 184° |
| 2026-05-07 09:07 | 25.93485 | 100.27251 | 11816 ft | 260 kts | 184° |
| 2026-05-07 09:07 | 25.91723 | 100.27191 | 11717 ft | 249 kts | 183° |
| 2026-05-07 09:07 | 25.90005 | 100.27133 | 11468 ft | 245 kts | 184° |
| 2026-05-07 09:07 | 25.88326 | 100.27078 | 11369 ft | 232 kts | 184° |
| 2026-05-07 09:08 | 25.86756 | 100.27043 | 11268 ft | 220 kts | 179° |
| 2026-05-07 09:08 | 25.85259 | 100.27277 | 11128 ft | 212 kts | 169° |
| 2026-05-07 09:08 | 25.83849 | 100.27637 | 10986 ft | 202 kts | 168° |
| 2026-05-07 09:08 | 25.82506 | 100.27993 | 10772 ft | 196 kts | 168° |
| 2026-05-07 09:09 | 25.81228 | 100.28336 | 10669 ft | 180 kts | 169° |
| 2026-05-07 09:09 | 25.80051 | 100.28652 | 10438 ft | 172 kts | 169° |
| 2026-05-07 09:09 | 25.78868 | 100.28914 | 10070 ft | 171 kts | 172° |
| 2026-05-07 09:09 | 25.77718 | 100.29152 | 9636 ft | 169 kts | 172° |
| 2026-05-07 09:10 | 25.76559 | 100.29390 | 9168 ft | 169 kts | 171° |
| 2026-05-07 09:10 | 25.75408 | 100.29620 | 8723 ft | 167 kts | 172° |
| 2026-05-07 09:10 | 25.74273 | 100.29841 | 8280 ft | 166 kts | 172° |
| 2026-05-07 09:10 | 25.73120 | 100.30054 | 8035 ft | 166 kts | 172° |
| 2026-05-07 09:11 | 25.71997 | 100.30285 | 7975 ft | 161 kts | 169° |
| 2026-05-07 09:11 | 25.70885 | 100.30536 | 7864 ft | 164 kts | 169° |
| 2026-05-07 09:11 | 25.69749 | 100.30822 | 7666 ft | 167 kts | 169° |
| 2026-05-07 09:11 | 25.68620 | 100.31071 | 7473 ft | 164 kts | 169° |
| 2026-05-07 09:12 | 25.67502 | 100.31332 | 7288 ft | 163 kts | 169° |
| 2026-05-07 09:12 | 25.66390 | 100.31564 | 7135 ft | 161 kts | 169° |
| 2026-05-07 09:12 | 25.65325 | 100.31805 | 7107 ft | 132 kts | 168° |
| 2026-05-07 09:12 | 25.64645 | 100.31958 | 7106 ft | 68 kts | 168° |
| 2026-05-07 09:13 | 25.64401 | 100.32014 | 7106 ft | 15 kts | 164° |
| 2026-05-07 09:13 | 25.64380 | 100.32040 | 7106 ft | 3 kts | 101° |
| 2026-05-07 09:13 | 25.64379 | 100.32061 | 7106 ft | 2 kts | 91° |
| 2026-05-07 09:13 | 25.64383 | 100.32098 | 7106 ft | 7 kts | 79° |
| 2026-05-07 09:14 | 25.64396 | 100.32169 | 7106 ft | 9 kts | 70° |
| 2026-05-07 09:14 | 25.64467 | 100.32180 | 7106 ft | 13 kts | 348° |
| 2026-05-07 09:14 | 25.64573 | 100.32156 | 7106 ft | 16 kts | 348° |
| 2026-05-07 09:14 | 25.64660 | 100.32137 | 7106 ft | 11 kts | 349° |
| 2026-05-07 09:15 | 25.64730 | 100.32121 | 7106 ft | 9 kts | 348° |
| 2026-05-07 09:15 | 25.64790 | 100.32106 | 7106 ft | 8 kts | 349° |
| 2026-05-07 09:15 | 25.64840 | 100.32095 | 7106 ft | 6 kts | 348° |
| 2026-05-07 09:15 | 25.64866 | 100.32104 | 7106 ft | 3 kts | 84° |
| 2026-05-07 09:16 | 25.64867 | 100.32128 | 7106 ft | 1 kts | 81° |
| 2026-05-07 09:16 | 25.64869 | 100.32138 | 7106 ft | 0 kts | 77° |
| 2026-05-07 09:16 | 25.64872 | 100.32151 | 7106 ft | 2 kts | 78° |
| 2026-05-07 09:16 | 25.64874 | 100.32162 | 7106 ft | 0 kts | 78° |
| 2026-05-07 09:17 | 25.64874 | 100.32164 | 7106 ft | 0 kts | 78° |